createdAt,value
2022-08-19T00:00:59.934Z,96922.97
2022-08-19T00:03:26.414Z,96918.03
2022-08-19T00:05:52.905Z,96929.13
2022-08-19T00:08:19.420Z,96931.78
2022-08-19T00:10:46.881Z,96940.63
2022-08-19T00:13:13.386Z,96945.91
2022-08-19T00:15:40.089Z,96955.34
2022-08-19T00:18:06.601Z,96962.47
2022-08-19T00:20:33.102Z,96953.34
2022-08-19T00:22:59.655Z,96955.06
2022-08-19T00:25:30.254Z,96952.84
2022-08-19T00:27:57.254Z,96945.38
2022-08-19T00:30:24.661Z,96950.47
2022-08-19T00:32:51.765Z,96955.84
2022-08-19T00:35:19.497Z,96949.19
2022-08-19T00:37:46.039Z,96948.41
2022-08-19T00:40:13.357Z,96952.19
2022-08-19T00:42:40.319Z,96966.63
2022-08-19T00:45:10.715Z,96976.13
2022-08-19T00:47:37.244Z,96983.56
2022-08-19T00:50:04.568Z,96974.38
2022-08-19T00:52:33.146Z,96978.16
2022-08-19T00:55:00.657Z,96980.06
2022-08-19T00:57:29.183Z,96982.28
2022-08-19T01:00:02.531Z,96986.06
2022-08-19T01:02:30.457Z,96981.94
2022-08-19T01:04:57.156Z,96999.97
2022-08-19T01:07:23.947Z,97007.31
2022-08-19T01:09:50.782Z,97012.72
2022-08-19T01:12:17.818Z,97021.91
2022-08-19T01:14:44.509Z,97028.66
2022-08-19T01:17:12.094Z,97026.41
2022-08-19T01:19:43.951Z,97015.66
2022-08-19T01:22:27.717Z,97002.94
2022-08-19T01:24:57.595Z,97005.66
2022-08-19T01:27:25.958Z,96998.84
2022-08-19T01:29:52.656Z,96999.75
2022-08-19T01:32:21.154Z,96996.66
2022-08-19T01:35:02.508Z,96985.16
2022-08-19T01:37:29.151Z,96973.88
2022-08-19T01:39:55.671Z,96976.72
2022-08-19T01:42:23.131Z,96962.38
2022-08-19T01:44:57.306Z,96949.78
2022-08-19T01:47:23.866Z,96930.91
2022-08-19T01:49:50.405Z,96924.41
2022-08-19T01:52:16.981Z,96919.44
2022-08-19T01:54:43.489Z,96904.72
2022-08-19T01:57:12.230Z,96888.66
2022-08-19T01:59:40.278Z,96903.19
2022-08-19T02:02:09.356Z,96918.28
2022-08-19T02:04:36.698Z,96918.06
2022-08-19T02:07:03.258Z,96925.28
2022-08-19T02:09:29.754Z,96921.31
2022-08-19T02:11:56.652Z,96923.06
2022-08-19T02:14:23.161Z,96918.00
2022-08-19T02:16:49.833Z,96909.88
2022-08-19T02:19:16.345Z,96907.44
2022-08-19T02:21:44.482Z,96913.84
2022-08-19T02:24:11.029Z,96899.97
2022-08-19T02:26:37.669Z,96891.31
2022-08-19T02:29:04.774Z,96887.22
2022-08-19T02:31:31.296Z,96889.97
2022-08-19T02:33:57.944Z,96889.38
2022-08-19T02:36:25.334Z,96901.75
2022-08-19T02:38:54.477Z,96897.69
2022-08-19T02:41:23.899Z,96907.06
2022-08-19T02:44:26.702Z,96902.00
2022-08-19T02:46:40.886Z,96893.94
2022-08-19T02:49:08.426Z,96892.72
2022-08-19T02:51:39.745Z,96898.63
2022-08-19T02:54:07.058Z,96912.31
2022-08-19T02:56:35.778Z,96910.66
2022-08-19T02:59:02.689Z,96913.53
2022-08-19T03:01:31.321Z,96903.91
2022-08-19T03:03:58.923Z,96912.13
2022-08-19T03:06:25.882Z,96910.75
2022-08-19T03:08:52.447Z,96904.13
2022-08-19T03:11:23.696Z,96915.34
2022-08-19T03:13:51.819Z,96908.97
2022-08-19T03:16:19.402Z,96909.94
2022-08-19T03:18:45.951Z,96913.84
2022-08-19T03:21:19.439Z,96909.59
2022-08-19T03:23:46.358Z,96904.34
2022-08-19T03:26:16.367Z,96912.00
2022-08-19T03:28:50.880Z,96913.84
2022-08-19T03:31:45.481Z,96905.63
2022-08-19T03:34:12.618Z,96924.69
2022-08-19T03:36:40.286Z,96941.47
2022-08-19T03:39:06.768Z,96958.63
2022-08-19T03:41:44.851Z,96981.06
2022-08-19T03:44:21.565Z,96991.72
2022-08-19T03:46:49.428Z,97019.75
2022-08-19T03:49:18.391Z,97024.88
2022-08-19T03:51:45.817Z,97042.41
2022-08-19T03:54:13.865Z,97053.50
2022-08-19T03:56:41.494Z,97088.72
2022-08-19T03:59:09.514Z,97086.44
2022-08-19T04:01:36.333Z,97046.50
2022-08-19T04:04:04.614Z,97008.41
2022-08-19T04:06:32.374Z,97014.13
2022-08-19T04:08:59.926Z,97021.75
2022-08-19T04:11:43.211Z,97018.53
2022-08-19T04:14:11.879Z,97020.56
2022-08-19T04:16:38.454Z,97014.44
2022-08-19T04:19:05.990Z,97026.97
2022-08-19T04:21:32.973Z,97032.22
2022-08-19T04:23:59.511Z,97017.91
2022-08-19T04:26:29.149Z,97011.53
2022-08-19T04:28:56.124Z,97017.47
2022-08-19T04:31:26.943Z,97001.00
2022-08-19T04:33:54.582Z,96995.91
2022-08-19T04:36:22.776Z,96985.78
2022-08-19T04:38:49.801Z,96966.97
2022-08-19T04:41:35.491Z,96959.91
2022-08-19T04:46:38.153Z,96959.06
2022-08-19T04:49:13.033Z,96966.06
2022-08-19T04:51:41.945Z,96954.97
2022-08-19T04:54:08.483Z,96965.59
2022-08-19T04:56:35.242Z,96965.03
2022-08-19T04:59:05.171Z,96980.09
2022-08-19T05:01:37.422Z,96977.97
2022-08-19T05:04:05.618Z,96982.06
2022-08-19T05:06:36.138Z,96977.94
2022-08-19T05:09:04.729Z,96985.13
2022-08-19T05:11:34.549Z,96986.34
2022-08-19T05:14:01.566Z,97007.72
2022-08-19T05:16:28.692Z,97026.50
2022-08-19T05:19:14.395Z,97026.66
2022-08-19T05:21:59.787Z,97025.69
2022-08-19T05:24:26.857Z,97021.06
2022-08-19T05:26:57.499Z,97029.38
2022-08-19T05:29:25.449Z,97037.75
2022-08-19T05:31:52.659Z,97037.63
2022-08-19T05:34:22.599Z,97030.59
2022-08-19T05:36:49.815Z,97024.72
2022-08-19T05:39:17.969Z,97017.78
2022-08-19T05:41:45.359Z,97014.59
2022-08-19T05:44:12.059Z,97014.66
2022-08-19T05:46:39.138Z,97011.75
2022-08-19T05:49:08.912Z,97011.84
2022-08-19T05:51:38.310Z,97017.78
2022-08-19T05:54:06.315Z,97029.00
2022-08-19T05:56:32.974Z,97030.72
2022-08-19T05:58:59.882Z,97025.13
2022-08-19T06:01:27.141Z,97035.38
2022-08-19T06:03:54.637Z,97037.41
2022-08-19T06:06:21.615Z,97045.03
2022-08-19T06:08:51.063Z,97046.84
2022-08-19T06:11:20.375Z,97034.72
2022-08-19T06:13:51.860Z,97038.22
2022-08-19T06:16:23.754Z,97041.72
2022-08-19T06:18:52.529Z,97031.72
2022-08-19T06:21:23.365Z,97042.66
2022-08-19T06:23:51.315Z,97038.94
2022-08-19T06:26:19.451Z,97023.72
2022-08-19T06:28:49.712Z,97001.53
2022-08-19T06:31:17.384Z,97032.75
2022-08-19T06:33:44.191Z,97026.91
2022-08-19T06:36:41.525Z,97023.56
2022-08-19T06:39:15.289Z,97020.34
2022-08-19T06:41:47.615Z,97010.59
2022-08-19T06:44:19.223Z,97015.38
2022-08-19T06:46:54.543Z,97031.34
2022-08-19T06:49:21.555Z,97025.00
2022-08-19T06:51:48.934Z,97033.00
2022-08-19T06:54:20.085Z,97036.81
2022-08-19T06:56:47.190Z,97052.09
2022-08-19T06:59:15.865Z,97067.19
2022-08-19T07:01:46.741Z,97069.78
2022-08-19T07:04:14.930Z,97075.28
2022-08-19T07:06:44.217Z,97084.03
2022-08-19T07:09:13.039Z,97071.75
2022-08-19T07:11:39.712Z,97087.66
2022-08-19T07:14:07.036Z,97085.47
2022-08-19T07:16:46.909Z,97086.50
2022-08-19T07:19:16.085Z,97080.31
2022-08-19T07:21:43.182Z,97085.34
2022-08-19T07:24:10.420Z,97084.94
2022-08-19T07:26:42.190Z,97070.25
2022-08-19T07:29:09.233Z,97069.25
2022-08-19T07:31:38.457Z,97067.78
2022-08-19T07:34:09.538Z,97058.22
2022-08-19T07:36:38.342Z,97070.06
2022-08-19T07:39:06.906Z,97070.44
2022-08-19T07:41:33.539Z,97074.03
2022-08-19T07:44:04.437Z,97073.38
2022-08-19T07:46:34.755Z,97086.34
2022-08-19T07:49:01.436Z,97104.38
2022-08-19T07:51:28.695Z,97101.47
2022-08-19T07:54:03.753Z,97106.63
2022-08-19T07:56:30.318Z,97119.94
2022-08-19T08:01:28.753Z,97127.16
2022-08-19T08:04:15.026Z,97132.06
2022-08-19T08:07:00.401Z,97136.38
2022-08-19T08:09:28.802Z,97118.38
2022-08-19T08:12:01.895Z,97125.28
2022-08-19T08:14:35.071Z,97119.06
2022-08-19T08:17:02.495Z,97097.31
2022-08-19T08:19:29.602Z,97102.28
2022-08-19T08:21:57.465Z,97092.38
2022-08-19T08:24:28.668Z,97064.69
2022-08-19T08:26:57.079Z,97079.03
2022-08-19T08:29:24.566Z,97082.06
2022-08-19T08:31:53.458Z,97060.13
2022-08-19T08:34:26.247Z,97091.34
2022-08-19T08:36:52.773Z,97080.06
2022-08-19T08:39:20.937Z,97055.41
2022-08-19T08:42:10.361Z,97077.78
2022-08-19T08:47:26.145Z,97071.94
2022-08-19T08:49:56.103Z,97059.19
2022-08-19T08:52:24.753Z,97059.69
2022-08-19T08:54:59.943Z,97067.72
2022-08-19T08:57:28.998Z,97057.44
2022-08-19T09:00:07.322Z,97056.69
2022-08-19T09:02:43.493Z,97076.66
2022-08-19T09:05:16.329Z,97064.13
2022-08-19T09:07:50.886Z,97070.38
2022-08-19T09:10:20.265Z,97092.66
2022-08-19T09:12:47.308Z,97106.16
2022-08-19T09:15:15.355Z,97126.81
2022-08-19T09:17:41.893Z,97104.41
2022-08-19T09:20:11.516Z,97122.25
2022-08-19T09:22:39.323Z,97106.25
2022-08-19T09:25:06.539Z,97069.16
2022-08-19T09:27:35.573Z,97040.38
2022-08-19T09:30:12.210Z,97011.19
2022-08-19T09:32:43.278Z,97007.97
2022-08-19T09:35:10.195Z,97022.56
2022-08-19T09:37:37.519Z,97042.00
2022-08-19T09:40:04.502Z,97054.06
2022-08-19T09:42:35.366Z,97066.75
2022-08-19T09:45:02.234Z,97068.72
2022-08-19T09:47:31.782Z,97056.63
2022-08-19T09:49:58.993Z,97052.19
2022-08-19T09:52:25.955Z,97043.34
2022-08-19T09:54:59.552Z,97025.34
2022-08-19T09:57:26.100Z,97086.38
2022-08-19T09:59:52.569Z,97096.59
2022-08-19T10:02:22.257Z,97078.50
2022-08-19T10:05:07.923Z,97096.94
2022-08-19T10:07:36.340Z,97102.59
2022-08-19T10:10:04.816Z,97092.03
2022-08-19T10:12:31.454Z,97075.72
2022-08-19T10:14:58.004Z,97088.19
2022-08-19T10:17:27.578Z,97088.81
2022-08-19T10:20:00.745Z,97074.84
2022-08-19T10:22:27.494Z,97072.03
2022-08-19T10:24:54.091Z,97071.00
2022-08-19T10:27:20.610Z,97073.09
2022-08-19T10:29:48.816Z,97072.88
2022-08-19T10:32:15.494Z,97085.31
2022-08-19T10:34:48.738Z,97094.81
2022-08-19T10:37:18.070Z,97103.75
2022-08-19T10:39:55.564Z,97104.78
2022-08-19T10:42:22.371Z,97114.34
2022-08-19T10:44:49.065Z,97108.22
2022-08-19T10:47:25.067Z,97115.88
2022-08-19T10:50:12.177Z,97119.28
2022-08-19T10:52:40.258Z,97107.81
2022-08-19T10:55:36.005Z,97096.63
2022-08-19T10:58:02.967Z,97085.91
2022-08-19T11:00:31.759Z,97081.41
2022-08-19T11:02:58.450Z,97076.03
2022-08-19T11:05:25.163Z,97066.41
2022-08-19T11:07:52.618Z,97061.06
2022-08-19T11:10:21.909Z,97034.63
2022-08-19T11:12:49.160Z,97043.00
2022-08-19T11:15:15.887Z,97071.22
2022-08-19T11:17:44.439Z,97106.09
2022-08-19T11:20:14.914Z,97118.88
2022-08-19T11:22:42.294Z,97109.31
2022-08-19T11:25:10.849Z,97121.63
2022-08-19T11:27:43.263Z,97102.72
2022-08-19T11:30:13.233Z,97075.06
2022-08-19T11:32:43.437Z,97085.59
2022-08-19T11:35:12.365Z,97110.53
2022-08-19T11:37:39.013Z,97106.31
2022-08-19T11:40:06.430Z,97088.66
2022-08-19T11:42:51.800Z,97083.41
2022-08-19T11:45:18.888Z,97080.56
2022-08-19T11:47:45.386Z,97090.59
2022-08-19T11:50:11.861Z,97096.25
2022-08-19T11:52:38.428Z,97077.88
2022-08-19T11:55:05.214Z,97070.16
2022-08-19T11:57:32.143Z,97067.28
2022-08-19T11:59:58.655Z,97062.53
2022-08-19T12:02:25.146Z,97052.88
2022-08-19T12:04:51.743Z,97050.56
2022-08-19T12:07:18.223Z,97043.53
2022-08-19T12:09:44.870Z,97037.75
2022-08-19T12:12:12.598Z,97037.13
2022-08-19T12:14:39.504Z,97036.97
2022-08-19T12:17:08.378Z,97023.81
2022-08-19T12:19:36.930Z,97023.78
2022-08-19T12:22:04.287Z,97014.44
2022-08-19T12:24:33.948Z,97018.09
2022-08-19T12:27:03.069Z,97011.84
2022-08-19T12:29:30.587Z,97005.94
2022-08-19T12:32:02.249Z,97003.69
2022-08-19T12:34:31.642Z,97003.38
2022-08-19T12:36:58.784Z,97014.66
2022-08-19T12:39:25.637Z,97005.28
2022-08-19T12:41:54.756Z,97011.00
2022-08-19T12:44:28.926Z,96998.75
2022-08-19T12:46:56.871Z,97011.06
2022-08-19T12:49:52.529Z,97018.84
2022-08-19T12:52:16.650Z,97019.09
2022-08-19T12:54:49.002Z,97027.28
2022-08-19T12:57:21.869Z,97019.75
2022-08-19T12:59:54.050Z,97025.75
2022-08-19T13:02:20.802Z,97036.16
2022-08-19T13:04:47.601Z,97021.44
2022-08-19T13:07:14.300Z,97028.03
2022-08-19T13:09:43.521Z,97037.66
2022-08-19T13:12:13.815Z,97020.69
2022-08-19T13:14:41.330Z,97014.19
2022-08-19T13:17:09.248Z,97006.09
2022-08-19T13:19:37.487Z,97005.31
2022-08-19T13:22:03.991Z,96988.56
2022-08-19T13:24:33.860Z,97003.53
2022-08-19T13:27:01.166Z,96999.19
2022-08-19T13:29:46.179Z,96995.00
2022-08-19T13:32:31.487Z,97003.09
2022-08-19T13:34:58.085Z,96989.59
2022-08-19T13:37:42.083Z,96996.94
2022-08-19T13:40:13.874Z,96983.47
2022-08-19T13:42:40.987Z,96977.03
2022-08-19T13:45:08.021Z,96969.97
2022-08-19T13:47:45.322Z,96973.44
2022-08-19T13:50:13.053Z,96966.00
2022-08-19T13:52:39.937Z,96959.44
2022-08-19T13:55:07.085Z,96953.00
2022-08-19T13:57:33.770Z,96956.53
2022-08-19T14:00:00.329Z,96958.34
2022-08-19T14:02:27.462Z,96951.84
2022-08-19T14:04:54.166Z,96964.75
2022-08-19T14:07:21.201Z,96965.00
2022-08-19T14:09:47.743Z,96957.97
2022-08-19T14:12:19.114Z,96958.31
2022-08-19T14:14:55.561Z,96947.44
2022-08-19T14:17:22.492Z,96931.91
2022-08-19T14:19:49.174Z,96933.44
2022-08-19T14:22:15.678Z,96935.81
2022-08-19T14:24:49.229Z,96934.13
2022-08-19T14:27:15.763Z,96932.16
2022-08-19T14:29:42.303Z,96931.22
2022-08-19T14:32:13.040Z,96937.31
2022-08-19T14:34:46.630Z,96947.28
2022-08-19T14:37:15.342Z,96964.50
2022-08-19T14:39:42.404Z,96949.13
2022-08-19T14:42:11.398Z,96955.66
2022-08-19T14:44:38.821Z,96955.81
2022-08-19T14:47:05.483Z,96947.06
2022-08-19T14:49:35.369Z,96956.72
2022-08-19T14:52:08.918Z,96944.31
2022-08-19T14:54:35.447Z,96934.19
2022-08-19T14:57:02.041Z,96940.84
2022-08-19T14:59:28.846Z,96934.88
2022-08-19T15:01:55.430Z,96937.03
2022-08-19T15:04:21.986Z,96954.25
2022-08-19T15:06:48.488Z,96959.72
2022-08-19T15:09:15.052Z,96952.94
2022-08-19T15:11:41.602Z,96936.25
2022-08-19T15:14:08.109Z,96941.00
2022-08-19T15:16:34.621Z,96940.31
2022-08-19T15:19:01.339Z,96946.47
2022-08-19T15:21:28.636Z,96932.19
2022-08-19T15:23:56.520Z,96908.41
2022-08-19T15:26:23.049Z,96903.69
2022-08-19T15:28:49.833Z,96906.44
2022-08-19T15:31:25.426Z,96906.50
2022-08-19T15:33:58.166Z,96902.84
2022-08-19T15:36:26.224Z,96903.03
2022-08-19T15:38:53.280Z,96901.69
2022-08-19T15:41:24.243Z,96910.69
2022-08-19T15:43:52.341Z,96908.91
2022-08-19T15:46:20.409Z,96900.34
2022-08-19T15:48:49.128Z,96886.38
2022-08-19T15:51:24.701Z,96903.38
2022-08-19T15:53:51.737Z,96905.72
2022-08-19T15:56:18.241Z,96902.03
2022-08-19T15:59:03.341Z,96891.50
2022-08-19T16:01:29.898Z,96901.91
2022-08-19T16:04:19.534Z,96884.09
2022-08-19T16:06:47.521Z,96884.22
2022-08-19T16:09:15.441Z,96893.06
2022-08-19T16:11:45.894Z,96899.16
2022-08-19T16:14:14.332Z,96898.25
2022-08-19T16:16:40.870Z,96905.22
2022-08-19T16:19:10.534Z,96901.38
2022-08-19T16:21:41.805Z,96910.16
2022-08-19T16:24:10.269Z,96905.78
2022-08-19T16:26:36.834Z,96919.34
2022-08-19T16:29:08.689Z,96950.22
2022-08-19T16:31:36.650Z,96963.97
2022-08-19T16:34:03.524Z,96963.66
2022-08-19T16:36:31.239Z,96971.97
2022-08-19T16:38:58.359Z,96977.22
2022-08-19T16:41:25.005Z,96964.25
2022-08-19T16:43:52.529Z,96936.09
2022-08-19T16:46:19.441Z,96933.34
2022-08-19T16:48:49.129Z,96933.88
2022-08-19T16:51:16.038Z,96938.28
2022-08-19T16:53:43.264Z,96926.41
2022-08-19T16:56:09.832Z,96934.28
2022-08-19T16:58:36.450Z,96946.56
2022-08-19T17:01:07.720Z,96949.50
2022-08-19T17:03:35.768Z,96944.50
2022-08-19T17:06:04.018Z,96940.69
2022-08-19T17:08:31.418Z,96937.91
2022-08-19T17:11:16.930Z,96942.22
2022-08-19T17:13:44.421Z,96949.66
2022-08-19T17:16:14.033Z,96947.38
2022-08-19T17:18:40.603Z,96930.50
2022-08-19T17:21:07.120Z,96910.31
2022-08-19T17:23:43.143Z,96894.53
2022-08-19T17:26:18.159Z,96900.19
2022-08-19T17:28:47.154Z,96890.34
2022-08-19T17:31:13.695Z,96891.28
2022-08-19T17:33:41.417Z,96870.97
2022-08-19T17:36:08.456Z,96859.66
2022-08-19T17:38:35.907Z,96862.81
2022-08-19T17:41:05.822Z,96884.97
2022-08-19T17:43:33.870Z,96897.13
2022-08-19T17:46:03.222Z,96903.53
2022-08-19T17:48:39.482Z,96911.59
2022-08-19T17:51:16.474Z,96913.66
2022-08-19T17:53:43.224Z,96917.84
2022-08-19T17:56:10.682Z,96926.56
2022-08-19T17:58:40.470Z,96932.38
2022-08-19T18:01:10.284Z,96939.69
2022-08-19T18:03:37.215Z,96938.41
2022-08-19T18:06:03.760Z,96939.56
2022-08-19T18:08:30.291Z,96964.31
2022-08-19T18:10:56.832Z,96980.56
2022-08-19T18:13:23.324Z,96991.44
2022-08-19T18:15:50.294Z,96991.56
2022-08-19T18:18:16.979Z,96995.84
2022-08-19T18:20:44.177Z,97006.00
2022-08-19T18:23:45.503Z,97007.19
2022-08-19T18:25:57.243Z,97018.09
2022-08-19T18:28:25.449Z,97019.91
2022-08-19T18:30:52.348Z,97008.22
2022-08-19T18:33:19.529Z,97018.16
2022-08-19T18:35:47.101Z,97026.31
2022-08-19T18:38:32.815Z,97022.84
2022-08-19T18:41:18.088Z,97024.88
2022-08-19T18:44:03.274Z,97036.91
2022-08-19T18:46:48.599Z,97039.66
2022-08-19T18:49:17.484Z,97038.19
2022-08-19T18:51:44.273Z,97033.19
2022-08-19T18:54:12.598Z,97040.63
2022-08-19T18:56:43.538Z,97039.06
2022-08-19T18:59:11.333Z,97037.94
2022-08-19T19:01:39.563Z,97043.13
2022-08-19T19:04:10.537Z,97044.16
2022-08-19T19:06:40.205Z,97051.84
2022-08-19T19:09:17.617Z,97052.19
2022-08-19T19:11:48.302Z,97065.53
2022-08-19T19:14:32.761Z,97057.69
2022-08-19T19:17:05.239Z,97069.59
2022-08-19T19:19:33.173Z,97063.06
2022-08-19T19:22:00.983Z,97067.47
2022-08-19T19:24:32.608Z,97071.88
2022-08-19T19:27:00.525Z,97074.44
2022-08-19T19:29:27.316Z,97076.38
2022-08-19T19:31:55.954Z,97076.84
2022-08-19T19:34:29.579Z,97080.41
2022-08-19T19:36:57.039Z,97088.31
2022-08-19T19:39:34.015Z,97102.16
2022-08-19T19:42:12.485Z,97103.47
2022-08-19T19:44:48.722Z,97097.38
2022-08-19T19:47:18.926Z,97103.69
2022-08-19T19:50:10.638Z,97105.59
2022-08-19T19:52:33.046Z,97119.53
2022-08-19T19:54:59.895Z,97134.25
2022-08-19T19:57:26.884Z,97124.03
2022-08-19T19:59:54.208Z,97127.38
2022-08-19T20:02:21.971Z,97123.78
2022-08-19T20:04:51.142Z,97118.19
2022-08-19T20:07:17.801Z,97106.38
2022-08-19T20:09:59.413Z,97099.25
2022-08-19T20:12:26.656Z,97098.41
2022-08-19T20:14:53.137Z,97099.13
2022-08-19T20:17:20.670Z,97112.22
2022-08-19T20:19:47.989Z,97113.19
2022-08-19T20:22:14.833Z,97120.13
2022-08-19T20:24:42.671Z,97118.44
2022-08-19T20:27:10.753Z,97104.84
2022-08-19T20:29:44.179Z,97107.94
2022-08-19T20:32:12.404Z,97123.19
2022-08-19T20:34:39.850Z,97127.19
2022-08-19T20:37:09.494Z,97122.16
2022-08-19T20:39:36.590Z,97132.97
2022-08-19T20:42:03.287Z,97130.47
2022-08-19T20:44:29.791Z,97126.66
2022-08-19T20:46:59.405Z,97120.94
2022-08-19T20:49:28.597Z,97118.41
2022-08-19T20:51:56.196Z,97122.56
2022-08-19T20:54:22.661Z,97129.00
2022-08-19T20:56:49.205Z,97139.50
2022-08-19T20:59:15.699Z,97135.16
2022-08-19T21:01:42.239Z,97131.91
2022-08-19T21:04:08.770Z,97137.63
2022-08-19T21:06:35.261Z,97131.06
2022-08-19T21:09:01.772Z,97131.41
2022-08-19T21:11:28.274Z,97123.16
2022-08-19T21:13:54.890Z,97118.53
2022-08-19T21:16:22.050Z,97119.00
2022-08-19T21:18:48.666Z,97114.38
2022-08-19T21:21:15.864Z,97104.38
2022-08-19T21:23:44.089Z,97101.56
2022-08-19T21:26:10.872Z,97110.19
2022-08-19T21:28:37.472Z,97105.88
2022-08-19T21:31:05.319Z,97102.00
2022-08-19T21:33:32.847Z,97111.88
2022-08-19T21:36:00.086Z,97125.94
2022-08-19T21:38:27.139Z,97111.47
2022-08-19T21:40:53.826Z,97112.16
2022-08-19T21:43:20.478Z,97111.09
2022-08-19T21:45:47.586Z,97105.44
2022-08-19T21:48:14.772Z,97108.06
2022-08-19T21:50:42.038Z,97116.81
2022-08-19T21:53:08.720Z,97116.19
2022-08-19T21:55:38.635Z,97114.63
2022-08-19T21:58:05.166Z,97103.28
2022-08-19T22:00:32.523Z,97108.38
2022-08-19T22:02:59.142Z,97112.19
2022-08-19T22:05:25.791Z,97119.72
2022-08-19T22:07:53.481Z,97126.72
2022-08-19T22:10:22.363Z,97128.00
2022-08-19T22:12:51.732Z,97135.28
2022-08-19T22:15:21.135Z,97146.72
2022-08-19T22:17:47.694Z,97132.63
2022-08-19T22:20:15.304Z,97142.50
2022-08-19T22:22:47.225Z,97138.28
2022-08-19T22:25:31.532Z,97129.38
2022-08-19T22:28:00.476Z,97133.63
2022-08-19T22:30:32.377Z,97133.44
2022-08-19T22:33:01.303Z,97136.34
2022-08-19T22:35:31.335Z,97131.31
2022-08-19T22:37:58.901Z,97124.94
2022-08-19T22:40:26.211Z,97108.06
2022-08-19T22:43:04.370Z,97107.88
2022-08-19T22:45:31.632Z,97103.78
2022-08-19T22:47:58.116Z,97101.25
2022-08-19T22:50:24.658Z,97091.72
2022-08-19T22:52:58.182Z,97089.06
2022-08-19T22:55:28.203Z,97093.94
2022-08-19T22:57:55.493Z,97093.66
2022-08-19T23:00:23.835Z,97092.81
2022-08-19T23:02:51.751Z,97096.53
2022-08-19T23:05:18.879Z,97089.47
2022-08-19T23:07:52.100Z,97090.28
2022-08-19T23:10:27.220Z,97096.38
2022-08-19T23:12:56.334Z,97102.69
2022-08-19T23:15:25.788Z,97098.38
2022-08-19T23:17:53.413Z,97096.84
2022-08-19T23:20:20.546Z,97097.63
2022-08-19T23:22:49.620Z,97101.94
2022-08-19T23:25:18.069Z,97104.00
2022-08-19T23:28:03.530Z,97112.63
2022-08-19T23:30:31.230Z,97118.41
2022-08-19T23:32:59.207Z,97117.69
2022-08-19T23:35:26.514Z,97125.97
2022-08-19T23:37:53.092Z,97119.50
2022-08-19T23:40:21.894Z,97104.00
2022-08-19T23:42:49.805Z,97104.13
2022-08-19T23:45:22.947Z,97103.16
2022-08-19T23:47:50.829Z,97111.66
2022-08-19T23:50:20.545Z,97104.22
2022-08-19T23:52:54.661Z,97104.84
2022-08-19T23:55:23.245Z,97108.31
2022-08-19T23:57:49.926Z,97112.88
